sensor_id;sensor_type;location;lat;lon;timestamp;temperature;humidity
22114;DHT22;11223;49.968;9.062;2023-05-10T00:01:23;14.80;99.90
22114;DHT22;11223;49.968;9.062;2023-05-10T00:03:48;14.80;99.90
22114;DHT22;11223;49.968;9.062;2023-05-10T00:06:14;14.70;99.90
22114;DHT22;11223;49.968;9.062;2023-05-10T00:08:39;14.60;99.90
22114;DHT22;11223;49.968;9.062;2023-05-10T00:11:05;14.60;99.90
22114;DHT22;11223;49.968;9.062;2023-05-10T00:13:31;14.50;99.90
22114;DHT22;11223;49.968;9.062;2023-05-10T00:15:57;14.50;99.90
22114;DHT22;11223;49.968;9.062;2023-05-10T00:18:22;14.40;99.90
22114;DHT22;11223;49.968;9.062;2023-05-10T00:20:48;14.40;99.90
22114;DHT22;11223;49.968;9.062;2023-05-10T00:23:14;14.30;99.90
22114;DHT22;11223;49.968;9.062;2023-05-10T00:25:40;14.30;99.90
22114;DHT22;11223;49.968;9.062;2023-05-10T00:28:05;14.20;99.90
22114;DHT22;11223;49.968;9.062;2023-05-10T00:30:31;14.20;99.90
22114;DHT22;11223;49.968;9.062;2023-05-10T00:32:56;14.20;99.90
22114;DHT22;11223;49.968;9.062;2023-05-10T00:35:22;14.10;99.90
22114;DHT22;11223;49.968;9.062;2023-05-10T00:37:48;14.10;99.90
22114;DHT22;11223;49.968;9.062;2023-05-10T00:40:14;14.10;99.90
22114;DHT22;11223;49.968;9.062;2023-05-10T00:42:39;14.00;99.90
22114;DHT22;11223;49.968;9.062;2023-05-10T00:45:06;14.00;99.90
22114;DHT22;11223;49.968;9.062;2023-05-10T00:47:32;14.00;99.90
22114;DHT22;11223;49.968;9.062;2023-05-10T00:49:59;13.90;99.90
22114;DHT22;11223;49.968;9.062;2023-05-10T00:52:26;13.90;99.90
22114;DHT22;11223;49.968;9.062;2023-05-10T00:54:53;13.90;99.90
22114;DHT22;11223;49.968;9.062;2023-05-10T00:57:19;13.90;99.90
22114;DHT22;11223;49.968;9.062;2023-05-10T00:59:44;13.80;99.90
22114;DHT22;11223;49.968;9.062;2023-05-10T01:02:10;13.80;99.90
22114;DHT22;11223;49.968;9.062;2023-05-10T01:04:37;13.80;99.90
22114;DHT22;11223;49.968;9.062;2023-05-10T01:07:03;13.80;99.90
22114;DHT22;11223;49.968;9.062;2023-05-10T01:09:29;13.70;99.90
22114;DHT22;11223;49.968;9.062;2023-05-10T01:11:55;13.70;99.90
22114;DHT22;11223;49.968;9.062;2023-05-10T01:14:21;13.70;99.90
22114;DHT22;11223;49.968;9.062;2023-05-10T01:16:48;13.70;99.90
22114;DHT22;11223;49.968;9.062;2023-05-10T01:19:24;13.60;99.90
22114;DHT22;11223;49.968;9.062;2023-05-10T01:33:19;13.50;99.90
22114;DHT22;11223;49.968;9.062;2023-05-10T01:38:35;13.50;99.90
22114;DHT22;11223;49.968;9.062;2023-05-10T01:41:19;13.40;99.90
22114;DHT22;11223;49.968;9.062;2023-05-10T01:44:01;13.40;99.90
22114;DHT22;11223;49.968;9.062;2023-05-10T01:46:34;13.40;99.90
22114;DHT22;11223;49.968;9.062;2023-05-10T01:49:03;13.30;99.90
22114;DHT22;11223;49.968;9.062;2023-05-10T01:51:38;13.30;99.90
22114;DHT22;11223;49.968;9.062;2023-05-10T01:54:06;13.30;99.90
22114;DHT22;11223;49.968;9.062;2023-05-10T01:56:33;13.20;99.90
22114;DHT22;11223;49.968;9.062;2023-05-10T01:59:00;13.20;99.90
22114;DHT22;11223;49.968;9.062;2023-05-10T02:01:31;13.20;99.90
22114;DHT22;11223;49.968;9.062;2023-05-10T02:03:59;13.20;99.90
22114;DHT22;11223;49.968;9.062;2023-05-10T02:06:26;13.20;99.90
22114;DHT22;11223;49.968;9.062;2023-05-10T02:08:53;13.10;99.90
22114;DHT22;11223;49.968;9.062;2023-05-10T02:11:20;13.10;99.90
22114;DHT22;11223;49.968;9.062;2023-05-10T02:13:48;13.10;99.90
22114;DHT22;11223;49.968;9.062;2023-05-10T02:16:15;13.20;99.90
22114;DHT22;11223;49.968;9.062;2023-05-10T02:18:42;13.10;99.90
22114;DHT22;11223;49.968;9.062;2023-05-10T02:21:10;13.10;99.90
22114;DHT22;11223;49.968;9.062;2023-05-10T02:23:37;13.10;99.90
22114;DHT22;11223;49.968;9.062;2023-05-10T02:26:04;13.10;99.90
22114;DHT22;11223;49.968;9.062;2023-05-10T02:28:31;13.10;99.90
22114;DHT22;11223;49.968;9.062;2023-05-10T02:30:58;13.00;99.90
22114;DHT22;11223;49.968;9.062;2023-05-10T02:33:24;13.10;99.90
22114;DHT22;11223;49.968;9.062;2023-05-10T02:35:51;13.00;99.90
22114;DHT22;11223;49.968;9.062;2023-05-10T02:38:19;13.00;99.90
22114;DHT22;11223;49.968;9.062;2023-05-10T02:40:46;13.00;99.90
22114;DHT22;11223;49.968;9.062;2023-05-10T02:43:14;13.00;99.90
22114;DHT22;11223;49.968;9.062;2023-05-10T02:45:43;13.00;99.90
22114;DHT22;11223;49.968;9.062;2023-05-10T02:48:09;13.00;99.90
22114;DHT22;11223;49.968;9.062;2023-05-10T02:50:35;13.00;99.90
22114;DHT22;11223;49.968;9.062;2023-05-10T02:53:10;13.00;99.90
22114;DHT22;11223;49.968;9.062;2023-05-10T02:55:38;12.90;99.90
22114;DHT22;11223;49.968;9.062;2023-05-10T02:58:06;13.00;99.90
22114;DHT22;11223;49.968;9.062;2023-05-10T03:00:31;12.90;99.90
22114;DHT22;11223;49.968;9.062;2023-05-10T03:02:57;12.90;99.90
22114;DHT22;11223;49.968;9.062;2023-05-10T03:05:23;12.90;99.90
22114;DHT22;11223;49.968;9.062;2023-05-10T03:07:49;12.90;99.90
22114;DHT22;11223;49.968;9.062;2023-05-10T03:10:15;12.90;99.90
22114;DHT22;11223;49.968;9.062;2023-05-10T03:17:55;12.80;99.90
22114;DHT22;11223;49.968;9.062;2023-05-10T03:20:29;12.80;99.90
22114;DHT22;11223;49.968;9.062;2023-05-10T03:23:05;12.80;99.90
22114;DHT22;11223;49.968;9.062;2023-05-10T03:25:33;12.80;99.90
22114;DHT22;11223;49.968;9.062;2023-05-10T03:28:01;12.80;99.90
22114;DHT22;11223;49.968;9.062;2023-05-10T03:30:27;12.80;99.90
22114;DHT22;11223;49.968;9.062;2023-05-10T03:32:53;12.80;99.90
22114;DHT22;11223;49.968;9.062;2023-05-10T03:35:19;12.80;99.90
22114;DHT22;11223;49.968;9.062;2023-05-10T03:37:45;12.80;99.90
22114;DHT22;11223;49.968;9.062;2023-05-10T03:40:11;12.80;99.90
22114;DHT22;11223;49.968;9.062;2023-05-10T03:42:36;12.80;99.90
22114;DHT22;11223;49.968;9.062;2023-05-10T03:45:02;12.70;99.90
22114;DHT22;11223;49.968;9.062;2023-05-10T03:47:28;12.80;99.90
22114;DHT22;11223;49.968;9.062;2023-05-10T03:49:54;12.70;99.90
22114;DHT22;11223;49.968;9.062;2023-05-10T03:52:20;12.80;99.90
22114;DHT22;11223;49.968;9.062;2023-05-10T03:54:46;12.70;99.90
22114;DHT22;11223;49.968;9.062;2023-05-10T03:57:11;12.70;99.90
22114;DHT22;11223;49.968;9.062;2023-05-10T03:59:37;12.70;99.90
22114;DHT22;11223;49.968;9.062;2023-05-10T04:02:02;12.70;99.90
22114;DHT22;11223;49.968;9.062;2023-05-10T04:04:28;12.70;99.90
22114;DHT22;11223;49.968;9.062;2023-05-10T04:06:53;12.70;99.90
22114;DHT22;11223;49.968;9.062;2023-05-10T04:09:20;12.70;99.90
22114;DHT22;11223;49.968;9.062;2023-05-10T04:11:45;12.70;99.90
22114;DHT22;11223;49.968;9.062;2023-05-10T04:14:11;12.70;99.90
22114;DHT22;11223;49.968;9.062;2023-05-10T04:16:37;12.70;99.90
22114;DHT22;11223;49.968;9.062;2023-05-10T04:19:02;12.70;99.90
22114;DHT22;11223;49.968;9.062;2023-05-10T04:21:29;12.70;99.90
22114;DHT22;11223;49.968;9.062;2023-05-10T04:23:54;12.70;99.90
22114;DHT22;11223;49.968;9.062;2023-05-10T04:26:20;12.70;99.90
22114;DHT22;11223;49.968;9.062;2023-05-10T04:28:45;12.70;99.90
22114;DHT22;11223;49.968;9.062;2023-05-10T04:31:11;12.80;99.90
22114;DHT22;11223;49.968;9.062;2023-05-10T04:33:37;12.80;99.90
22114;DHT22;11223;49.968;9.062;2023-05-10T04:36:03;12.80;99.90
22114;DHT22;11223;49.968;9.062;2023-05-10T04:38:29;12.90;99.90
22114;DHT22;11223;49.968;9.062;2023-05-10T04:41:03;12.90;99.90
22114;DHT22;11223;49.968;9.062;2023-05-10T04:43:28;12.90;99.90
22114;DHT22;11223;49.968;9.062;2023-05-10T04:45:56;12.90;99.90
22114;DHT22;11223;49.968;9.062;2023-05-10T04:48:22;13.00;99.90
22114;DHT22;11223;49.968;9.062;2023-05-10T04:50:47;12.90;99.90
22114;DHT22;11223;49.968;9.062;2023-05-10T04:53:13;13.00;99.90
22114;DHT22;11223;49.968;9.062;2023-05-10T04:55:39;13.00;99.90
22114;DHT22;11223;49.968;9.062;2023-05-10T04:58:04;13.10;99.90
22114;DHT22;11223;49.968;9.062;2023-05-10T05:00:30;13.10;99.90
22114;DHT22;11223;49.968;9.062;2023-05-10T05:02:55;13.10;99.90
22114;DHT22;11223;49.968;9.062;2023-05-10T05:05:21;13.10;99.90
22114;DHT22;11223;49.968;9.062;2023-05-10T05:07:46;13.20;99.90
22114;DHT22;11223;49.968;9.062;2023-05-10T05:10:12;13.20;99.90
22114;DHT22;11223;49.968;9.062;2023-05-10T05:12:37;13.20;99.90
22114;DHT22;11223;49.968;9.062;2023-05-10T05:15:03;13.30;99.90
22114;DHT22;11223;49.968;9.062;2023-05-10T05:17:32;13.30;99.90
22114;DHT22;11223;49.968;9.062;2023-05-10T05:19:57;13.30;99.90
22114;DHT22;11223;49.968;9.062;2023-05-10T05:22:23;13.30;99.90
22114;DHT22;11223;49.968;9.062;2023-05-10T05:24:55;13.30;99.90
22114;DHT22;11223;49.968;9.062;2023-05-10T05:27:22;13.40;99.90
22114;DHT22;11223;49.968;9.062;2023-05-10T05:29:50;13.30;99.90
22114;DHT22;11223;49.968;9.062;2023-05-10T05:32:16;13.30;99.90
22114;DHT22;11223;49.968;9.062;2023-05-10T05:34:43;13.30;99.90
22114;DHT22;11223;49.968;9.062;2023-05-10T05:37:13;13.30;99.90
22114;DHT22;11223;49.968;9.062;2023-05-10T05:39:39;13.30;99.90
22114;DHT22;11223;49.968;9.062;2023-05-10T05:42:05;13.30;99.90
22114;DHT22;11223;49.968;9.062;2023-05-10T05:44:31;13.30;99.90
22114;DHT22;11223;49.968;9.062;2023-05-10T05:46:56;13.30;99.90
22114;DHT22;11223;49.968;9.062;2023-05-10T05:49:22;13.30;99.90
22114;DHT22;11223;49.968;9.062;2023-05-10T05:51:47;13.30;99.90
22114;DHT22;11223;49.968;9.062;2023-05-10T05:54:14;13.30;99.90
22114;DHT22;11223;49.968;9.062;2023-05-10T05:56:40;13.40;99.90
22114;DHT22;11223;49.968;9.062;2023-05-10T05:59:06;13.40;99.90
22114;DHT22;11223;49.968;9.062;2023-05-10T06:01:31;13.40;99.90
22114;DHT22;11223;49.968;9.062;2023-05-10T06:03:57;13.40;99.90
22114;DHT22;11223;49.968;9.062;2023-05-10T06:06:22;13.40;99.90
22114;DHT22;11223;49.968;9.062;2023-05-10T06:08:48;13.50;99.90
22114;DHT22;11223;49.968;9.062;2023-05-10T06:11:13;13.50;99.90
22114;DHT22;11223;49.968;9.062;2023-05-10T06:13:39;13.60;99.90
22114;DHT22;11223;49.968;9.062;2023-05-10T06:16:05;13.60;99.90
22114;DHT22;11223;49.968;9.062;2023-05-10T06:18:31;13.70;99.90
22114;DHT22;11223;49.968;9.062;2023-05-10T06:20:56;13.70;99.90
22114;DHT22;11223;49.968;9.062;2023-05-10T06:23:22;13.80;99.90
22114;DHT22;11223;49.968;9.062;2023-05-10T06:25:48;13.80;99.90
22114;DHT22;11223;49.968;9.062;2023-05-10T06:28:14;13.80;99.90
22114;DHT22;11223;49.968;9.062;2023-05-10T06:30:39;13.80;99.90
22114;DHT22;11223;49.968;9.062;2023-05-10T06:33:05;13.80;99.90
22114;DHT22;11223;49.968;9.062;2023-05-10T06:35:30;13.80;99.90
22114;DHT22;11223;49.968;9.062;2023-05-10T06:37:58;13.80;99.90
22114;DHT22;11223;49.968;9.062;2023-05-10T06:40:24;13.90;99.90
22114;DHT22;11223;49.968;9.062;2023-05-10T06:42:50;13.90;99.90
22114;DHT22;11223;49.968;9.062;2023-05-10T06:45:16;13.90;99.90
22114;DHT22;11223;49.968;9.062;2023-05-10T06:47:41;13.90;99.90
22114;DHT22;11223;49.968;9.062;2023-05-10T06:50:09;13.90;99.90
22114;DHT22;11223;49.968;9.062;2023-05-10T06:52:35;13.90;99.90
22114;DHT22;11223;49.968;9.062;2023-05-10T06:55:01;13.90;99.90
22114;DHT22;11223;49.968;9.062;2023-05-10T06:57:27;14.00;99.90
22114;DHT22;11223;49.968;9.062;2023-05-10T06:59:52;14.00;99.90
22114;DHT22;11223;49.968;9.062;2023-05-10T07:02:18;14.00;99.90
22114;DHT22;11223;49.968;9.062;2023-05-10T07:04:44;14.00;99.90
22114;DHT22;11223;49.968;9.062;2023-05-10T07:07:09;14.00;99.90
22114;DHT22;11223;49.968;9.062;2023-05-10T07:09:35;14.00;99.90
22114;DHT22;11223;49.968;9.062;2023-05-10T07:12:01;14.00;99.90
22114;DHT22;11223;49.968;9.062;2023-05-10T07:14:27;14.10;99.90
22114;DHT22;11223;49.968;9.062;2023-05-10T07:16:53;14.20;99.90
22114;DHT22;11223;49.968;9.062;2023-05-10T07:19:18;14.20;99.90
22114;DHT22;11223;49.968;9.062;2023-05-10T07:21:45;14.30;99.90
22114;DHT22;11223;49.968;9.062;2023-05-10T07:24:10;14.40;99.90
22114;DHT22;11223;49.968;9.062;2023-05-10T07:26:36;14.40;99.90
22114;DHT22;11223;49.968;9.062;2023-05-10T07:29:01;14.50;99.90
22114;DHT22;11223;49.968;9.062;2023-05-10T07:31:27;14.50;99.90
22114;DHT22;11223;49.968;9.062;2023-05-10T07:33:53;14.50;99.90
22114;DHT22;11223;49.968;9.062;2023-05-10T07:36:19;14.50;99.90
22114;DHT22;11223;49.968;9.062;2023-05-10T07:38:44;14.60;99.90
22114;DHT22;11223;49.968;9.062;2023-05-10T07:41:11;14.50;99.90
22114;DHT22;11223;49.968;9.062;2023-05-10T07:43:37;14.50;99.90
22114;DHT22;11223;49.968;9.062;2023-05-10T07:46:03;14.60;99.90
22114;DHT22;11223;49.968;9.062;2023-05-10T07:48:28;14.60;99.90
22114;DHT22;11223;49.968;9.062;2023-05-10T07:50:54;14.60;99.90
22114;DHT22;11223;49.968;9.062;2023-05-10T07:53:19;14.60;99.90
22114;DHT22;11223;49.968;9.062;2023-05-10T07:55:50;14.60;99.90
22114;DHT22;11223;49.968;9.062;2023-05-10T07:58:16;14.60;99.90
22114;DHT22;11223;49.968;9.062;2023-05-10T08:00:42;14.60;99.90
22114;DHT22;11223;49.968;9.062;2023-05-10T08:03:08;14.60;99.90
22114;DHT22;11223;49.968;9.062;2023-05-10T08:05:33;14.70;99.90
22114;DHT22;11223;49.968;9.062;2023-05-10T08:07:59;14.70;99.90
22114;DHT22;11223;49.968;9.062;2023-05-10T08:10:24;14.70;99.90
22114;DHT22;11223;49.968;9.062;2023-05-10T08:12:50;14.80;99.90
22114;DHT22;11223;49.968;9.062;2023-05-10T08:15:16;14.90;99.90
22114;DHT22;11223;49.968;9.062;2023-05-10T08:17:42;15.00;99.90
22114;DHT22;11223;49.968;9.062;2023-05-10T08:20:08;15.10;99.90
22114;DHT22;11223;49.968;9.062;2023-05-10T08:22:34;15.20;99.90
22114;DHT22;11223;49.968;9.062;2023-05-10T08:24:59;15.30;99.90
22114;DHT22;11223;49.968;9.062;2023-05-10T08:27:25;15.30;99.90
22114;DHT22;11223;49.968;9.062;2023-05-10T08:29:51;15.40;99.90
22114;DHT22;11223;49.968;9.062;2023-05-10T08:32:17;15.30;99.90
22114;DHT22;11223;49.968;9.062;2023-05-10T08:34:43;15.40;99.90
22114;DHT22;11223;49.968;9.062;2023-05-10T08:37:08;15.40;99.90
22114;DHT22;11223;49.968;9.062;2023-05-10T08:39:35;15.50;99.90
22114;DHT22;11223;49.968;9.062;2023-05-10T08:42:03;15.50;99.90
22114;DHT22;11223;49.968;9.062;2023-05-10T08:44:32;15.30;99.90
22114;DHT22;11223;49.968;9.062;2023-05-10T08:46:58;15.30;99.90
22114;DHT22;11223;49.968;9.062;2023-05-10T08:49:25;15.30;99.90
22114;DHT22;11223;49.968;9.062;2023-05-10T08:51:54;15.20;99.90
22114;DHT22;11223;49.968;9.062;2023-05-10T08:54:21;15.30;99.90
22114;DHT22;11223;49.968;9.062;2023-05-10T08:56:46;15.30;99.90
22114;DHT22;11223;49.968;9.062;2023-05-10T08:59:12;15.50;99.90
22114;DHT22;11223;49.968;9.062;2023-05-10T09:01:39;15.70;99.90
22114;DHT22;11223;49.968;9.062;2023-05-10T09:04:05;15.90;99.90
22114;DHT22;11223;49.968;9.062;2023-05-10T09:06:31;16.00;99.90
22114;DHT22;11223;49.968;9.062;2023-05-10T09:08:57;16.10;99.90
22114;DHT22;11223;49.968;9.062;2023-05-10T09:11:24;16.10;99.90
22114;DHT22;11223;49.968;9.062;2023-05-10T09:13:50;16.20;99.90
22114;DHT22;11223;49.968;9.062;2023-05-10T09:16:17;16.20;99.90
22114;DHT22;11223;49.968;9.062;2023-05-10T09:18:43;16.20;99.90
22114;DHT22;11223;49.968;9.062;2023-05-10T09:21:09;16.20;99.90
22114;DHT22;11223;49.968;9.062;2023-05-10T09:23:35;16.20;99.90
22114;DHT22;11223;49.968;9.062;2023-05-10T09:26:07;16.20;99.90
22114;DHT22;11223;49.968;9.062;2023-05-10T09:28:54;16.30;99.90
22114;DHT22;11223;49.968;9.062;2023-05-10T09:31:21;16.30;99.90
22114;DHT22;11223;49.968;9.062;2023-05-10T09:33:48;16.30;99.90
22114;DHT22;11223;49.968;9.062;2023-05-10T09:36:14;16.20;99.90
22114;DHT22;11223;49.968;9.062;2023-05-10T09:38:51;16.10;99.90
22114;DHT22;11223;49.968;9.062;2023-05-10T09:43:43;15.80;99.90
22114;DHT22;11223;49.968;9.062;2023-05-10T09:46:09;15.60;99.90
22114;DHT22;11223;49.968;9.062;2023-05-10T09:48:45;15.50;99.90
22114;DHT22;11223;49.968;9.062;2023-05-10T09:51:21;15.30;99.90
22114;DHT22;11223;49.968;9.062;2023-05-10T09:53:47;15.20;99.90
22114;DHT22;11223;49.968;9.062;2023-05-10T09:56:33;15.20;99.90
22114;DHT22;11223;49.968;9.062;2023-05-10T09:59:03;15.20;99.90
22114;DHT22;11223;49.968;9.062;2023-05-10T10:01:29;15.20;99.90
22114;DHT22;11223;49.968;9.062;2023-05-10T10:03:56;15.30;99.90
22114;DHT22;11223;49.968;9.062;2023-05-10T10:06:23;15.40;99.90
22114;DHT22;11223;49.968;9.062;2023-05-10T10:08:50;15.60;99.90
22114;DHT22;11223;49.968;9.062;2023-05-10T10:11:16;15.70;99.90
22114;DHT22;11223;49.968;9.062;2023-05-10T10:13:41;15.80;99.90
22114;DHT22;11223;49.968;9.062;2023-05-10T10:16:08;15.80;99.90
22114;DHT22;11223;49.968;9.062;2023-05-10T10:18:36;15.90;99.90
22114;DHT22;11223;49.968;9.062;2023-05-10T10:21:07;16.00;99.90
22114;DHT22;11223;49.968;9.062;2023-05-10T10:23:35;16.20;99.90
22114;DHT22;11223;49.968;9.062;2023-05-10T10:26:02;16.40;99.90
22114;DHT22;11223;49.968;9.062;2023-05-10T10:28:47;16.70;99.90
22114;DHT22;11223;49.968;9.062;2023-05-10T10:31:46;17.00;99.90
22114;DHT22;11223;49.968;9.062;2023-05-10T10:34:11;17.30;99.90
22114;DHT22;11223;49.968;9.062;2023-05-10T10:36:46;17.30;99.90
22114;DHT22;11223;49.968;9.062;2023-05-10T10:39:13;17.40;99.90
22114;DHT22;11223;49.968;9.062;2023-05-10T10:41:49;17.40;99.90
22114;DHT22;11223;49.968;9.062;2023-05-10T10:57:54;16.50;99.90
22114;DHT22;11223;49.968;9.062;2023-05-10T11:00:32;16.20;99.90
22114;DHT22;11223;49.968;9.062;2023-05-10T11:03:09;16.10;99.90
22114;DHT22;11223;49.968;9.062;2023-05-10T11:05:46;16.00;99.90
22114;DHT22;11223;49.968;9.062;2023-05-10T11:16:22;15.70;99.90
22114;DHT22;11223;49.968;9.062;2023-05-10T11:19:13;15.80;99.90
22114;DHT22;11223;49.968;9.062;2023-05-10T11:21:49;15.90;99.90
22114;DHT22;11223;49.968;9.062;2023-05-10T11:24:17;15.90;99.90
22114;DHT22;11223;49.968;9.062;2023-05-10T11:26:43;16.00;99.90
22114;DHT22;11223;49.968;9.062;2023-05-10T11:29:09;16.00;99.90
22114;DHT22;11223;49.968;9.062;2023-05-10T11:31:35;16.00;99.90
22114;DHT22;11223;49.968;9.062;2023-05-10T11:34:06;16.00;99.90
22114;DHT22;11223;49.968;9.062;2023-05-10T11:36:35;16.10;99.90
22114;DHT22;11223;49.968;9.062;2023-05-10T11:39:02;16.20;99.90
22114;DHT22;11223;49.968;9.062;2023-05-10T11:41:29;16.30;99.90
22114;DHT22;11223;49.968;9.062;2023-05-10T11:43:56;16.30;99.90
22114;DHT22;11223;49.968;9.062;2023-05-10T11:46:24;16.50;99.90
22114;DHT22;11223;49.968;9.062;2023-05-10T11:48:51;16.60;99.90
22114;DHT22;11223;49.968;9.062;2023-05-10T11:51:21;16.70;99.90
22114;DHT22;11223;49.968;9.062;2023-05-10T11:53:47;16.70;99.90
22114;DHT22;11223;49.968;9.062;2023-05-10T11:56:14;16.60;99.90
22114;DHT22;11223;49.968;9.062;2023-05-10T11:58:39;16.30;99.90
22114;DHT22;11223;49.968;9.062;2023-05-10T12:01:07;16.20;99.90
22114;DHT22;11223;49.968;9.062;2023-05-10T12:03:33;16.10;99.90
22114;DHT22;11223;49.968;9.062;2023-05-10T12:05:59;15.90;99.90
22114;DHT22;11223;49.968;9.062;2023-05-10T12:08:27;15.90;99.90
22114;DHT22;11223;49.968;9.062;2023-05-10T12:11:09;15.80;99.90
22114;DHT22;11223;49.968;9.062;2023-05-10T12:13:40;15.70;99.90
22114;DHT22;11223;49.968;9.062;2023-05-10T12:16:16;15.70;99.90
22114;DHT22;11223;49.968;9.062;2023-05-10T12:18:42;15.60;99.90
22114;DHT22;11223;49.968;9.062;2023-05-10T12:21:12;15.60;99.90
22114;DHT22;11223;49.968;9.062;2023-05-10T12:23:38;15.60;99.90
22114;DHT22;11223;49.968;9.062;2023-05-10T12:26:05;15.60;99.90
22114;DHT22;11223;49.968;9.062;2023-05-10T12:28:32;15.70;99.90
22114;DHT22;11223;49.968;9.062;2023-05-10T12:30:59;15.80;99.90
22114;DHT22;11223;49.968;9.062;2023-05-10T12:33:25;16.00;99.90
22114;DHT22;11223;49.968;9.062;2023-05-10T12:35:54;16.10;99.90
22114;DHT22;11223;49.968;9.062;2023-05-10T12:38:32;16.30;99.90
22114;DHT22;11223;49.968;9.062;2023-05-10T12:41:03;16.60;99.90
22114;DHT22;11223;49.968;9.062;2023-05-10T12:43:29;17.00;99.90
22114;DHT22;11223;49.968;9.062;2023-05-10T12:45:55;17.20;99.90
22114;DHT22;11223;49.968;9.062;2023-05-10T12:48:21;17.50;99.90
22114;DHT22;11223;49.968;9.062;2023-05-10T12:50:47;17.90;99.90
22114;DHT22;11223;49.968;9.062;2023-05-10T12:53:16;18.10;99.90
22114;DHT22;11223;49.968;9.062;2023-05-10T12:55:43;18.30;99.90
22114;DHT22;11223;49.968;9.062;2023-05-10T12:58:08;18.40;99.90
22114;DHT22;11223;49.968;9.062;2023-05-10T13:00:34;18.50;99.90
22114;DHT22;11223;49.968;9.062;2023-05-10T13:03:00;18.60;99.90
22114;DHT22;11223;49.968;9.062;2023-05-10T13:05:25;18.70;99.90
22114;DHT22;11223;49.968;9.062;2023-05-10T13:07:51;18.70;99.90
22114;DHT22;11223;49.968;9.062;2023-05-10T13:10:17;18.80;99.90
22114;DHT22;11223;49.968;9.062;2023-05-10T13:12:42;18.90;99.90
22114;DHT22;11223;49.968;9.062;2023-05-10T13:15:08;18.90;99.90
22114;DHT22;11223;49.968;9.062;2023-05-10T13:17:34;19.00;99.90
22114;DHT22;11223;49.968;9.062;2023-05-10T13:19:59;18.90;99.90
22114;DHT22;11223;49.968;9.062;2023-05-10T13:22:25;18.70;99.90
22114;DHT22;11223;49.968;9.062;2023-05-10T13:24:51;18.50;99.90
22114;DHT22;11223;49.968;9.062;2023-05-10T13:27:16;18.50;99.90
22114;DHT22;11223;49.968;9.062;2023-05-10T13:29:42;18.50;99.90
22114;DHT22;11223;49.968;9.062;2023-05-10T13:32:07;18.50;99.90
22114;DHT22;11223;49.968;9.062;2023-05-10T13:34:33;18.30;99.90
22114;DHT22;11223;49.968;9.062;2023-05-10T13:37:01;18.20;99.90
22114;DHT22;11223;49.968;9.062;2023-05-10T13:39:26;18.10;99.90
22114;DHT22;11223;49.968;9.062;2023-05-10T13:41:52;18.20;99.90
22114;DHT22;11223;49.968;9.062;2023-05-10T13:44:18;18.50;99.90
22114;DHT22;11223;49.968;9.062;2023-05-10T13:46:43;18.60;99.90
22114;DHT22;11223;49.968;9.062;2023-05-10T13:49:09;18.70;99.90
22114;DHT22;11223;49.968;9.062;2023-05-10T13:51:35;18.80;99.90
22114;DHT22;11223;49.968;9.062;2023-05-10T13:54:01;18.90;99.90
22114;DHT22;11223;49.968;9.062;2023-05-10T13:56:27;18.90;99.90
22114;DHT22;11223;49.968;9.062;2023-05-10T13:58:53;19.00;99.90
22114;DHT22;11223;49.968;9.062;2023-05-10T14:01:18;19.00;99.90
22114;DHT22;11223;49.968;9.062;2023-05-10T14:03:44;19.00;99.90
22114;DHT22;11223;49.968;9.062;2023-05-10T14:06:09;19.10;99.90
22114;DHT22;11223;49.968;9.062;2023-05-10T14:08:35;19.00;99.90
22114;DHT22;11223;49.968;9.062;2023-05-10T14:11:01;19.00;99.90
22114;DHT22;11223;49.968;9.062;2023-05-10T14:13:27;19.00;99.90
22114;DHT22;11223;49.968;9.062;2023-05-10T14:15:54;18.90;99.90
22114;DHT22;11223;49.968;9.062;2023-05-10T14:18:19;18.70;99.90
22114;DHT22;11223;49.968;9.062;2023-05-10T14:20:45;18.60;99.90
22114;DHT22;11223;49.968;9.062;2023-05-10T14:23:11;18.50;99.90
22114;DHT22;11223;49.968;9.062;2023-05-10T14:25:39;18.40;99.90
22114;DHT22;11223;49.968;9.062;2023-05-10T14:28:05;18.30;99.90
22114;DHT22;11223;49.968;9.062;2023-05-10T14:30:31;18.10;99.90
22114;DHT22;11223;49.968;9.062;2023-05-10T14:32:58;17.90;99.90
22114;DHT22;11223;49.968;9.062;2023-05-10T14:35:24;17.80;99.90
22114;DHT22;11223;49.968;9.062;2023-05-10T14:37:49;17.70;99.90
22114;DHT22;11223;49.968;9.062;2023-05-10T14:40:15;17.60;99.90
22114;DHT22;11223;49.968;9.062;2023-05-10T14:42:42;17.70;99.90
22114;DHT22;11223;49.968;9.062;2023-05-10T14:48:41;17.80;99.90
22114;DHT22;11223;49.968;9.062;2023-05-10T14:51:07;17.80;99.90
22114;DHT22;11223;49.968;9.062;2023-05-10T14:53:33;17.90;99.90
22114;DHT22;11223;49.968;9.062;2023-05-10T14:59:21;17.90;99.90
22114;DHT22;11223;49.968;9.062;2023-05-10T15:01:46;17.80;99.90
22114;DHT22;11223;49.968;9.062;2023-05-10T15:04:12;17.80;99.90
22114;DHT22;11223;49.968;9.062;2023-05-10T15:06:38;17.90;99.90
22114;DHT22;11223;49.968;9.062;2023-05-10T15:09:07;17.90;99.90
22114;DHT22;11223;49.968;9.062;2023-05-10T15:11:33;17.90;99.90
22114;DHT22;11223;49.968;9.062;2023-05-10T15:13:58;17.90;99.90
22114;DHT22;11223;49.968;9.062;2023-05-10T15:16:24;18.00;99.90
22114;DHT22;11223;49.968;9.062;2023-05-10T15:18:50;18.10;99.90
22114;DHT22;11223;49.968;9.062;2023-05-10T15:21:16;18.30;99.90
22114;DHT22;11223;49.968;9.062;2023-05-10T15:23:42;18.40;99.90
22114;DHT22;11223;49.968;9.062;2023-05-10T15:26:08;18.30;99.90
22114;DHT22;11223;49.968;9.062;2023-05-10T15:28:33;18.30;99.90
22114;DHT22;11223;49.968;9.062;2023-05-10T15:30:59;18.20;99.90
22114;DHT22;11223;49.968;9.062;2023-05-10T15:33:25;18.20;99.90
22114;DHT22;11223;49.968;9.062;2023-05-10T15:35:52;18.10;99.90
22114;DHT22;11223;49.968;9.062;2023-05-10T15:38:19;18.10;99.90
22114;DHT22;11223;49.968;9.062;2023-05-10T15:40:44;18.00;99.90
22114;DHT22;11223;49.968;9.062;2023-05-10T15:43:10;17.90;99.90
22114;DHT22;11223;49.968;9.062;2023-05-10T15:45:35;17.80;99.90
22114;DHT22;11223;49.968;9.062;2023-05-10T15:48:01;17.70;99.90
22114;DHT22;11223;49.968;9.062;2023-05-10T15:50:27;17.60;99.90
22114;DHT22;11223;49.968;9.062;2023-05-10T15:52:53;17.50;99.90
22114;DHT22;11223;49.968;9.062;2023-05-10T15:55:19;17.50;99.90
22114;DHT22;11223;49.968;9.062;2023-05-10T15:57:44;17.50;99.90
22114;DHT22;11223;49.968;9.062;2023-05-10T16:00:11;17.50;99.90
22114;DHT22;11223;49.968;9.062;2023-05-10T16:06:34;17.60;99.90
22114;DHT22;11223;49.968;9.062;2023-05-10T16:08:59;17.60;99.90
22114;DHT22;11223;49.968;9.062;2023-05-10T16:11:25;17.60;99.90
22114;DHT22;11223;49.968;9.062;2023-05-10T16:13:51;17.50;99.90
22114;DHT22;11223;49.968;9.062;2023-05-10T16:16:17;17.50;99.90
22114;DHT22;11223;49.968;9.062;2023-05-10T16:18:42;17.60;99.90
22114;DHT22;11223;49.968;9.062;2023-05-10T16:21:08;17.60;99.90
22114;DHT22;11223;49.968;9.062;2023-05-10T16:23:33;17.60;99.90